createdAt,value
2023-01-23T00:01:29.725Z,6.38
2023-01-23T00:03:57.545Z,6.37
2023-01-23T00:06:25.109Z,6.38
2023-01-23T00:08:52.013Z,6.37
2023-01-23T00:11:25.411Z,6.38
2023-01-23T00:13:53.386Z,6.38
2023-01-23T00:16:24.112Z,6.39
2023-01-23T00:18:52.168Z,6.39
2023-01-23T00:21:23.446Z,6.40
2023-01-23T00:23:56.349Z,6.40
2023-01-23T00:26:27.113Z,6.39
2023-01-23T00:28:54.696Z,6.36
2023-01-23T00:31:26.250Z,6.32
2023-01-23T00:34:00.233Z,6.29
2023-01-23T00:36:37.259Z,6.23
2023-01-23T00:39:08.374Z,6.18
2023-01-23T00:41:35.316Z,6.14
2023-01-23T00:44:02.373Z,6.11
2023-01-23T00:46:29.274Z,6.08
2023-01-23T00:48:56.133Z,6.05
2023-01-23T00:51:23.376Z,6.03
2023-01-23T00:53:50.276Z,6.02
2023-01-23T00:56:17.227Z,5.97
2023-01-23T00:58:45.235Z,5.96
2023-01-23T01:01:13.737Z,5.95
2023-01-23T01:03:40.598Z,5.92
2023-01-23T01:06:07.450Z,5.92
2023-01-23T01:08:34.759Z,5.91
2023-01-23T01:11:01.772Z,5.89
2023-01-23T01:13:30.154Z,5.88
2023-01-23T01:15:57.088Z,5.88
2023-01-23T01:18:24.151Z,5.85
2023-01-23T01:20:51.850Z,5.87
2023-01-23T01:23:19.857Z,5.86
2023-01-23T01:25:47.012Z,5.86
2023-01-23T01:28:14.332Z,5.89
2023-01-23T01:30:41.845Z,5.89
2023-01-23T01:33:09.161Z,5.92
2023-01-23T01:35:35.928Z,5.93
2023-01-23T01:38:02.677Z,5.95
2023-01-23T01:40:34.686Z,5.95
2023-01-23T01:43:15.692Z,5.93
2023-01-23T01:46:21.743Z,5.91
2023-01-23T01:49:15.867Z,5.86
2023-01-23T01:52:08.515Z,5.83
2023-01-23T01:54:47.226Z,5.83
2023-01-23T01:57:30.818Z,5.84
2023-01-23T02:00:06.297Z,5.82
2023-01-23T02:02:40.509Z,5.83
2023-01-23T02:05:16.149Z,5.83
2023-01-23T02:07:54.314Z,5.82
2023-01-23T02:10:22.970Z,5.80
2023-01-23T02:12:52.499Z,5.80
2023-01-23T02:15:22.588Z,5.80
2023-01-23T02:17:54.700Z,5.79
2023-01-23T02:20:28.389Z,5.78
2023-01-23T02:23:04.133Z,5.76
2023-01-23T02:26:07.641Z,5.75
2023-01-23T02:28:48.366Z,5.67
2023-01-23T02:31:16.243Z,5.65
2023-01-23T02:33:47.979Z,5.65
2023-01-23T02:36:15.367Z,5.62
2023-01-23T02:38:58.830Z,5.61
2023-01-23T02:41:31.984Z,5.60
2023-01-23T02:44:04.681Z,5.58
2023-01-23T02:46:31.485Z,5.56
2023-01-23T02:48:58.658Z,5.57
2023-01-23T02:51:25.627Z,5.57
2023-01-23T02:53:52.446Z,5.59
2023-01-23T02:56:19.909Z,5.58
2023-01-23T02:59:05.530Z,5.58
2023-01-23T03:01:35.642Z,5.56
2023-01-23T03:04:06.451Z,5.56
2023-01-23T03:06:37.472Z,5.55
2023-01-23T03:09:14.555Z,5.55
2023-01-23T03:11:44.334Z,5.56
2023-01-23T03:14:15.924Z,5.60
2023-01-23T03:16:42.913Z,5.62
2023-01-23T03:19:10.968Z,5.66
2023-01-23T03:21:40.403Z,5.70
2023-01-23T03:24:13.988Z,5.71
2023-01-23T03:26:43.725Z,5.72
2023-01-23T03:29:44.163Z,5.68
2023-01-23T03:32:13.094Z,5.66
2023-01-23T03:34:41.457Z,5.66
2023-01-23T03:37:09.281Z,5.68
2023-01-23T03:39:54.807Z,5.70
2023-01-23T03:42:22.537Z,5.72
2023-01-23T03:44:51.041Z,5.77
2023-01-23T03:47:17.746Z,5.82
2023-01-23T03:49:44.462Z,5.86
2023-01-23T03:52:11.181Z,5.92
2023-01-23T03:54:37.943Z,5.95
2023-01-23T03:57:04.662Z,5.95
2023-01-23T03:59:31.343Z,5.95
2023-01-23T04:01:58.142Z,5.94
2023-01-23T04:04:24.893Z,5.94
2023-01-23T04:06:51.666Z,5.92
2023-01-23T04:09:18.535Z,5.90
2023-01-23T04:11:45.261Z,5.86
2023-01-23T04:14:11.991Z,5.86
2023-01-23T04:16:38.779Z,5.82
2023-01-23T04:19:05.502Z,5.80
2023-01-23T04:21:32.222Z,5.77
2023-01-23T04:23:58.913Z,5.75
2023-01-23T04:26:25.671Z,5.77
2023-01-23T04:28:52.378Z,5.75
2023-01-23T04:31:19.299Z,5.74
2023-01-23T04:33:46.035Z,5.73
2023-01-23T04:36:12.893Z,5.73
2023-01-23T04:38:39.671Z,5.73
2023-01-23T04:41:06.421Z,5.73
2023-01-23T04:43:33.201Z,5.74
2023-01-23T04:45:59.978Z,5.79
2023-01-23T04:48:27.120Z,5.82
2023-01-23T04:50:54.039Z,5.83
2023-01-23T04:53:20.794Z,5.83
2023-01-23T04:55:49.423Z,5.84
2023-01-23T04:58:21.009Z,5.84
2023-01-23T05:00:48.139Z,5.85
2023-01-23T05:03:15.647Z,5.88
2023-01-23T05:05:45.747Z,5.93
2023-01-23T05:08:13.375Z,5.97
2023-01-23T05:10:40.435Z,6.02
2023-01-23T05:13:08.177Z,6.06
2023-01-23T05:15:35.025Z,6.08
2023-01-23T05:18:01.967Z,6.10
2023-01-23T05:20:28.732Z,6.13
2023-01-23T05:22:57.623Z,6.18
2023-01-23T05:25:28.336Z,6.19
2023-01-23T05:27:55.883Z,6.22
2023-01-23T05:30:23.590Z,6.26
2023-01-23T05:32:50.697Z,6.28
2023-01-23T05:35:18.348Z,6.31
2023-01-23T05:37:52.147Z,6.34
2023-01-23T05:40:20.983Z,6.33
2023-01-23T05:42:48.551Z,6.35
2023-01-23T05:45:16.177Z,6.36
2023-01-23T05:47:43.690Z,6.37
2023-01-23T05:50:17.857Z,6.40
2023-01-23T05:52:45.870Z,6.40
2023-01-23T05:55:13.018Z,6.42
2023-01-23T05:57:40.257Z,6.44
2023-01-23T06:00:08.857Z,6.45
2023-01-23T06:02:35.681Z,6.46
2023-01-23T06:05:02.841Z,6.46
2023-01-23T06:07:29.813Z,6.46
2023-01-23T06:09:56.638Z,6.43
2023-01-23T06:12:23.529Z,6.43
2023-01-23T06:14:52.866Z,6.41
2023-01-23T06:17:20.086Z,6.37
2023-01-23T06:19:48.214Z,6.36
2023-01-23T06:22:14.950Z,6.33
2023-01-23T06:24:41.639Z,6.31
2023-01-23T06:27:08.903Z,6.31
2023-01-23T06:29:36.315Z,6.32
2023-01-23T06:32:04.081Z,6.33
2023-01-23T06:34:30.863Z,6.35
2023-01-23T06:36:57.733Z,6.33
2023-01-23T06:39:24.567Z,6.35
2023-01-23T06:41:51.365Z,6.33
2023-01-23T06:44:18.097Z,6.30
2023-01-23T06:46:44.885Z,6.27
2023-01-23T06:49:11.678Z,6.26
2023-01-23T06:51:38.435Z,6.23
2023-01-23T06:54:05.501Z,6.23
2023-01-23T06:56:32.406Z,6.15
2023-01-23T06:58:59.142Z,6.10
2023-01-23T07:01:26.454Z,6.06
2023-01-23T07:03:53.355Z,6.02
2023-01-23T07:06:20.091Z,5.99
2023-01-23T07:08:46.993Z,5.96
2023-01-23T07:11:13.762Z,5.95
2023-01-23T07:13:40.511Z,5.97
2023-01-23T07:16:07.712Z,5.94
2023-01-23T07:18:34.563Z,5.96
2023-01-23T07:21:04.500Z,5.95
2023-01-23T07:23:31.193Z,5.93
2023-01-23T07:26:09.616Z,5.93
2023-01-23T07:28:37.855Z,5.90
2023-01-23T07:31:05.751Z,5.92
2023-01-23T07:33:32.694Z,5.93
2023-01-23T07:35:59.510Z,5.95
2023-01-23T07:38:26.302Z,6.01
2023-01-23T07:40:53.268Z,6.03
2023-01-23T07:43:20.145Z,6.05
2023-01-23T07:45:46.932Z,6.10
2023-01-23T07:48:13.645Z,6.11
2023-01-23T07:50:40.422Z,6.13
2023-01-23T07:53:07.674Z,6.17
2023-01-23T07:55:34.792Z,6.19
2023-01-23T07:58:01.563Z,6.20
2023-01-23T08:00:30.153Z,6.18
2023-01-23T08:02:57.686Z,6.16
2023-01-23T08:05:25.046Z,6.14
2023-01-23T08:08:00.709Z,6.12
2023-01-23T08:10:34.695Z,6.09
2023-01-23T08:13:01.399Z,6.07
2023-01-23T08:15:28.127Z,6.09
2023-01-23T08:17:54.962Z,6.09
2023-01-23T08:20:23.074Z,6.11
2023-01-23T08:22:49.774Z,6.12
2023-01-23T08:25:16.685Z,6.12
2023-01-23T08:27:43.360Z,6.10
2023-01-23T08:30:11.337Z,6.07
2023-01-23T08:32:38.048Z,6.05
2023-01-23T08:35:05.417Z,6.04
2023-01-23T08:37:34.284Z,6.03
2023-01-23T08:40:01.082Z,6.01
2023-01-23T08:42:27.976Z,6.01
2023-01-23T08:44:55.589Z,6.02
2023-01-23T08:47:22.335Z,6.03
2023-01-23T08:49:49.366Z,6.03
2023-01-23T08:52:16.332Z,6.04
2023-01-23T08:54:43.058Z,6.06
2023-01-23T08:57:09.789Z,6.10
2023-01-23T08:59:36.573Z,6.13
2023-01-23T09:02:03.743Z,6.17
2023-01-23T09:04:30.635Z,6.24
2023-01-23T09:06:57.335Z,6.29
2023-01-23T09:09:24.215Z,6.35
2023-01-23T09:11:50.901Z,6.37
2023-01-23T09:14:17.854Z,6.38
2023-01-23T09:16:44.651Z,6.38
2023-01-23T09:19:12.651Z,6.36
2023-01-23T09:21:39.857Z,6.36
2023-01-23T09:24:07.240Z,6.37
2023-01-23T09:26:34.040Z,6.40
2023-01-23T09:29:01.564Z,6.44
2023-01-23T09:31:28.377Z,6.46
2023-01-23T09:33:55.230Z,6.52
2023-01-23T09:36:33.820Z,6.57
2023-01-23T09:39:08.284Z,6.65
2023-01-23T09:41:35.125Z,6.73
2023-01-23T09:44:49.634Z,6.84
2023-01-23T09:47:31.305Z,6.86
2023-01-23T09:50:08.538Z,6.93
2023-01-23T09:52:49.750Z,7.02
2023-01-23T09:55:45.499Z,7.09
2023-01-23T09:58:27.827Z,7.15
2023-01-23T10:00:54.725Z,7.20
2023-01-23T10:03:31.947Z,7.31
2023-01-23T10:06:25.133Z,7.38
2023-01-23T10:09:04.764Z,7.43
2023-01-23T10:12:39.236Z,7.52
2023-01-23T10:15:53.555Z,7.53
2023-01-23T10:18:58.472Z,7.57
2023-01-23T10:21:54.041Z,7.62
2023-01-23T10:24:51.170Z,7.66
2023-01-23T10:28:01.923Z,7.67
2023-01-23T10:30:38.413Z,7.67
2023-01-23T10:33:17.548Z,7.65
2023-01-23T10:36:24.211Z,7.62
2023-01-23T10:39:06.207Z,7.51
2023-01-23T10:41:34.195Z,7.48
2023-01-23T10:44:02.061Z,7.44
2023-01-23T10:46:37.973Z,7.35
2023-01-23T10:49:04.828Z,7.23
2023-01-23T10:51:37.432Z,7.13
2023-01-23T10:54:36.603Z,7.03
2023-01-23T10:57:07.836Z,6.91
2023-01-23T10:59:56.641Z,6.82
2023-01-23T11:02:37.352Z,6.74
2023-01-23T11:05:52.487Z,6.70
2023-01-23T11:08:29.026Z,6.64
2023-01-23T11:11:15.613Z,6.61
2023-01-23T11:13:48.252Z,6.59
2023-01-23T11:16:22.651Z,6.58
2023-01-23T11:19:19.426Z,6.56
2023-01-23T11:21:59.717Z,6.51
2023-01-23T11:24:41.208Z,6.46
2023-01-23T11:27:29.717Z,6.44
2023-01-23T11:30:08.432Z,6.42
2023-01-23T11:32:57.334Z,6.39
2023-01-23T11:35:50.988Z,6.41
2023-01-23T11:38:30.771Z,6.42
2023-01-23T11:40:58.717Z,6.45
2023-01-23T11:43:25.510Z,6.46
2023-01-23T11:46:45.239Z,6.52
2023-01-23T11:49:43.326Z,6.56
2023-01-23T11:52:32.563Z,6.61
2023-01-23T11:55:05.251Z,6.67
2023-01-23T11:58:18.077Z,6.74
2023-01-23T12:01:10.035Z,6.76
2023-01-23T12:04:01.047Z,6.81
2023-01-23T12:07:01.789Z,6.86
2023-01-23T12:09:51.863Z,6.88
2023-01-23T12:12:51.319Z,6.96
2023-01-23T12:15:46.346Z,7.03
2023-01-23T12:18:41.478Z,7.11
2023-01-23T12:21:40.684Z,7.21
2023-01-23T12:24:31.576Z,7.29
2023-01-23T12:26:58.222Z,7.35
2023-01-23T12:30:05.056Z,7.44
2023-01-23T12:33:18.974Z,7.50
2023-01-23T12:36:19.738Z,7.51
2023-01-23T12:39:33.902Z,7.51
2023-01-23T12:42:09.989Z,7.50
2023-01-23T12:44:53.049Z,7.49
2023-01-23T12:48:09.786Z,7.51
2023-01-23T12:50:45.415Z,7.48
2023-01-23T12:53:20.099Z,7.50
2023-01-23T12:56:02.101Z,7.52
2023-01-23T12:58:35.382Z,7.53
2023-01-23T13:01:46.381Z,7.54
2023-01-23T13:04:55.259Z,7.48
2023-01-23T13:07:52.675Z,7.41
2023-01-23T13:11:25.682Z,7.35
2023-01-23T13:13:52.497Z,7.28
2023-01-23T13:16:23.453Z,7.28
2023-01-23T13:19:15.507Z,7.25
2023-01-23T13:22:05.871Z,7.19
2023-01-23T13:25:06.771Z,7.14
2023-01-23T13:27:57.807Z,7.07
2023-01-23T13:30:24.447Z,7.02
2023-01-23T13:32:53.898Z,7.02
2023-01-23T13:35:39.016Z,7.00
2023-01-23T13:38:37.376Z,6.95
2023-01-23T13:41:30.383Z,6.92
2023-01-23T13:44:41.574Z,6.88
2023-01-23T14:22:44.413Z,6.52
2023-01-23T14:25:18.587Z,6.51
2023-01-23T14:27:54.284Z,6.51
2023-01-23T14:30:28.116Z,6.51
2023-01-23T14:32:56.307Z,6.50
2023-01-23T14:35:32.407Z,6.52
2023-01-23T14:38:08.022Z,6.52
2023-01-23T14:40:49.004Z,6.51
2023-01-23T14:43:26.682Z,6.49
2023-01-23T14:46:28.436Z,6.50
2023-01-23T14:48:56.239Z,6.48
2023-01-23T14:51:27.092Z,6.51
2023-01-23T14:53:58.630Z,6.53
2023-01-23T14:56:33.823Z,6.55
2023-01-23T14:59:06.492Z,6.54
2023-01-23T15:01:35.766Z,6.54
2023-01-23T15:04:07.574Z,6.53
2023-01-23T15:06:36.364Z,6.53
2023-01-23T15:09:34.645Z,6.52
2023-01-23T15:12:28.251Z,6.48
2023-01-23T15:14:56.384Z,6.45
2023-01-23T15:17:23.263Z,6.45
2023-01-23T15:19:59.450Z,6.46
2023-01-23T15:22:30.109Z,6.45
2023-01-23T15:24:57.004Z,6.43
2023-01-23T15:27:36.984Z,6.42
2023-01-23T15:30:30.688Z,6.39
2023-01-23T15:33:00.020Z,6.35
2023-01-23T15:35:26.945Z,6.31
2023-01-23T15:37:58.913Z,6.31
2023-01-23T15:40:30.187Z,6.31
2023-01-23T15:43:08.254Z,6.31
2023-01-23T15:45:35.175Z,6.28
2023-01-23T15:48:02.252Z,6.28
2023-01-23T15:50:29.526Z,6.28
2023-01-23T15:52:56.807Z,6.25
2023-01-23T15:55:26.902Z,6.24
2023-01-23T15:57:55.717Z,6.23
2023-01-23T16:00:27.796Z,6.21
2023-01-23T16:02:57.756Z,6.20
2023-01-23T16:05:34.664Z,6.17
2023-01-23T16:08:03.287Z,6.15
2023-01-23T16:10:39.063Z,6.16
2023-01-23T16:13:07.485Z,6.12
2023-01-23T16:15:35.578Z,6.10
2023-01-23T16:18:06.077Z,6.10
2023-01-23T16:20:40.367Z,6.09
2023-01-23T16:23:24.615Z,6.08
2023-01-23T16:25:52.187Z,6.06
2023-01-23T16:28:22.862Z,6.07
2023-01-23T16:30:51.639Z,6.06
2023-01-23T16:33:19.580Z,6.39
2023-01-23T16:35:48.064Z,6.47
2023-01-23T16:38:26.408Z,6.39
2023-01-23T16:40:55.075Z,6.30
2023-01-23T16:43:23.357Z,6.26
2023-01-23T16:45:53.713Z,6.22
2023-01-23T16:48:27.177Z,6.17
2023-01-23T16:51:05.120Z,6.13
2023-01-23T16:53:36.737Z,6.10
2023-01-23T16:56:05.945Z,6.09
2023-01-23T16:58:39.714Z,6.08
2023-01-23T17:01:20.670Z,6.09
2023-01-23T17:03:58.758Z,6.07
2023-01-23T17:06:26.167Z,6.07
2023-01-23T17:08:53.588Z,6.06
2023-01-23T17:11:33.683Z,6.08
2023-01-23T17:14:22.671Z,6.09
2023-01-23T17:16:52.095Z,6.08
2023-01-23T17:19:33.883Z,6.08
2023-01-23T17:22:02.888Z,6.06
2023-01-23T17:24:29.634Z,6.06
2023-01-23T17:26:56.549Z,6.05
2023-01-23T17:29:24.624Z,6.05
2023-01-23T17:31:52.281Z,6.05
2023-01-23T17:34:25.405Z,6.03
2023-01-23T17:36:54.987Z,6.03
2023-01-23T17:39:21.992Z,6.02
2023-01-23T17:41:48.805Z,6.00
2023-01-23T17:44:15.505Z,5.97
2023-01-23T17:46:42.634Z,5.97
2023-01-23T17:49:29.061Z,5.99
2023-01-23T17:51:59.747Z,6.00
2023-01-23T17:54:26.493Z,6.00
2023-01-23T17:56:53.629Z,6.01
2023-01-23T17:59:20.703Z,6.02
2023-01-23T18:01:47.783Z,6.02
2023-01-23T18:04:21.356Z,6.02
2023-01-23T18:06:49.201Z,6.00
2023-01-23T18:09:16.286Z,5.98
2023-01-23T18:11:52.391Z,5.99
2023-01-23T18:14:46.854Z,5.97
2023-01-23T18:17:38.686Z,5.92
2023-01-23T18:20:22.184Z,5.91
2023-01-23T18:22:50.047Z,5.89
2023-01-23T18:25:19.389Z,5.90
2023-01-23T18:27:52.522Z,5.91
2023-01-23T18:30:35.475Z,5.92
2023-01-23T18:33:38.939Z,5.94
2023-01-23T18:36:33.490Z,5.92
2023-01-23T18:39:32.049Z,5.92
2023-01-23T18:42:26.291Z,5.92
2023-01-23T18:45:01.037Z,5.93
2023-01-23T18:47:28.310Z,5.93
2023-01-23T18:49:55.379Z,5.96
2023-01-23T18:52:44.648Z,5.97
2023-01-23T18:55:25.459Z,5.94
2023-01-23T18:58:30.839Z,5.95
2023-01-23T19:01:03.792Z,5.91
2023-01-23T19:03:45.262Z,5.91
2023-01-23T19:06:24.534Z,5.93
2023-01-23T19:08:54.194Z,5.93
2023-01-23T19:11:50.908Z,5.94
2023-01-23T19:14:49.955Z,5.87
2023-01-23T19:17:41.235Z,5.82
2023-01-23T19:20:48.341Z,5.78
2023-01-23T19:23:37.032Z,5.73
2023-01-23T19:26:04.675Z,5.71
2023-01-23T19:28:31.759Z,5.69
2023-01-23T19:30:58.873Z,5.73
2023-01-23T19:33:25.684Z,5.72
2023-01-23T19:35:56.416Z,5.73
2023-01-23T19:38:23.683Z,5.75
2023-01-23T19:40:50.866Z,5.78
2023-01-23T19:43:18.075Z,5.79
2023-01-23T19:45:46.035Z,5.79
2023-01-23T19:48:13.796Z,5.79
2023-01-23T19:50:40.957Z,5.79
2023-01-23T19:53:11.810Z,5.79
2023-01-23T19:55:38.527Z,5.80
2023-01-23T19:58:05.532Z,5.79
2023-01-23T20:00:35.897Z,5.80
2023-01-23T20:03:04.757Z,5.79
2023-01-23T20:05:32.089Z,5.79
2023-01-23T20:07:59.135Z,5.78
2023-01-23T20:10:25.846Z,5.80
2023-01-23T20:12:54.133Z,5.81
2023-01-23T20:15:24.912Z,5.81
2023-01-23T20:17:53.252Z,5.82
2023-01-23T20:20:21.187Z,5.81
2023-01-23T20:22:48.347Z,5.83
2023-01-23T20:25:17.450Z,5.83
2023-01-23T20:27:45.130Z,5.84
2023-01-23T20:30:17.747Z,5.88
2023-01-23T20:32:44.964Z,5.90
2023-01-23T20:35:12.008Z,5.92
2023-01-23T20:37:38.743Z,5.96
2023-01-23T20:40:08.764Z,6.00
2023-01-23T20:42:35.597Z,6.02
2023-01-23T20:45:02.341Z,6.03
2023-01-23T20:47:29.189Z,6.07
2023-01-23T20:49:55.983Z,6.07
2023-01-23T20:52:41.552Z,6.08
2023-01-23T20:55:08.918Z,6.06
2023-01-23T20:57:54.439Z,6.08
2023-01-23T21:00:21.460Z,6.05
2023-01-23T21:02:48.311Z,6.07
2023-01-23T21:05:15.111Z,6.10
2023-01-23T21:07:41.816Z,6.09
2023-01-23T21:10:09.192Z,6.08
2023-01-23T21:12:36.009Z,6.09
2023-01-23T21:15:02.964Z,6.08
2023-01-23T21:17:29.729Z,6.06
2023-01-23T21:19:56.459Z,6.05
2023-01-23T21:22:23.243Z,6.02
2023-01-23T21:24:49.996Z,5.98
2023-01-23T21:27:19.872Z,5.97
2023-01-23T21:29:47.852Z,5.94
2023-01-23T21:32:14.596Z,5.94
2023-01-23T21:34:41.319Z,5.94
2023-01-23T21:37:10.759Z,5.94
2023-01-23T21:39:39.402Z,5.95
2023-01-23T21:42:06.193Z,5.98
2023-01-23T21:44:34.790Z,6.00
2023-01-23T21:47:03.104Z,6.00
2023-01-23T21:49:31.279Z,6.02
2023-01-23T21:51:58.022Z,6.01
2023-01-23T21:54:24.786Z,6.02
2023-01-23T21:56:51.537Z,6.03
2023-01-23T21:59:18.353Z,6.01
2023-01-23T22:01:46.685Z,6.03
2023-01-23T22:04:23.807Z,6.01
2023-01-23T22:06:56.787Z,6.02
2023-01-23T22:09:25.324Z,6.02
2023-01-23T22:11:52.780Z,6.03
2023-01-23T22:14:19.773Z,6.04
2023-01-23T22:16:49.343Z,6.05
2023-01-23T22:19:24.176Z,6.06
2023-01-23T22:21:53.607Z,6.07
2023-01-23T22:24:20.668Z,6.09
2023-01-23T22:26:47.446Z,6.10
2023-01-23T22:29:14.904Z,6.09
2023-01-23T22:31:42.070Z,6.09
2023-01-23T22:34:08.994Z,6.08
2023-01-23T22:36:35.761Z,6.08
2023-01-23T22:39:02.503Z,6.09
2023-01-23T22:41:29.246Z,6.08
2023-01-23T22:43:59.180Z,6.09
2023-01-23T22:46:26.560Z,6.10
2023-01-23T22:48:53.440Z,6.11
2023-01-23T22:51:27.202Z,6.09
2023-01-23T22:53:55.479Z,6.08
2023-01-23T22:56:24.877Z,6.07
2023-01-23T22:58:54.223Z,6.07
2023-01-23T23:01:25.465Z,6.04
2023-01-23T23:03:52.780Z,6.05
2023-01-23T23:06:20.255Z,6.04
2023-01-23T23:08:48.741Z,6.06
2023-01-23T23:11:24.895Z,6.05
2023-01-23T23:13:52.289Z,6.07
2023-01-23T23:16:26.530Z,6.06
2023-01-23T23:18:56.308Z,6.05
2023-01-23T23:21:28.090Z,6.04
2023-01-23T23:24:00.044Z,6.06
2023-01-23T23:26:30.043Z,6.06
2023-01-23T23:28:57.716Z,6.04
2023-01-23T23:31:25.100Z,6.04
2023-01-23T23:33:52.092Z,6.03
2023-01-23T23:36:18.865Z,6.04
2023-01-23T23:38:45.600Z,6.04
2023-01-23T23:41:15.657Z,6.03
2023-01-23T23:43:43.418Z,6.03
2023-01-23T23:46:12.483Z,6.05
2023-01-23T23:48:40.226Z,6.05
2023-01-23T23:51:11.165Z,6.05
2023-01-23T23:53:38.112Z,6.05
2023-01-23T23:56:06.841Z,6.08
2023-01-23T23:58:37.099Z,6.07
